sensor_id;sensor_type;location;lat;lon;timestamp;pressure;altitude;pressure_sealevel;temperature;humidity
32789;BME280;19141;48.980;8.410;2023-05-13T04:22:33;100329.50;;;9.38;100.00
32789;BME280;19141;48.980;8.410;2023-05-13T04:24:59;100324.53;;;9.35;100.00
32789;BME280;19141;48.980;8.410;2023-05-13T04:27:25;100322.69;;;9.44;100.00
32789;BME280;19141;48.980;8.410;2023-05-13T04:29:57;100323.88;;;9.49;100.00
32789;BME280;19141;48.980;8.410;2023-05-13T04:32:23;100330.72;;;9.60;100.00
32789;BME280;19141;48.980;8.410;2023-05-13T04:34:52;100331.88;;;9.66;100.00
32789;BME280;19141;48.980;8.410;2023-05-13T04:37:18;100332.72;;;9.74;100.00
32789;BME280;19141;48.980;8.410;2023-05-13T04:39:45;100333.88;;;9.80;100.00
32789;BME280;19141;48.980;8.410;2023-05-13T04:42:12;100339.19;;;9.88;100.00
32789;BME280;19141;48.980;8.410;2023-05-13T04:44:37;100347.34;;;9.95;100.00
32789;BME280;19141;48.980;8.410;2023-05-13T04:47:03;100343.38;;;9.99;100.00
32789;BME280;19141;48.980;8.410;2023-05-13T04:49:29;100346.19;;;10.05;100.00
32789;BME280;19141;48.980;8.410;2023-05-13T04:51:54;100347.66;;;10.08;100.00
32789;BME280;19141;48.980;8.410;2023-05-13T04:54:20;100347.84;;;10.15;100.00
32789;BME280;19141;48.980;8.410;2023-05-13T04:56:45;100343.00;;;10.18;100.00
32789;BME280;19141;48.980;8.410;2023-05-13T04:59:11;100351.50;;;10.30;100.00
32789;BME280;19141;48.980;8.410;2023-05-13T05:01:38;100348.16;;;10.44;100.00
32789;BME280;19141;48.980;8.410;2023-05-13T05:04:04;100350.66;;;10.46;100.00
32789;BME280;19141;48.980;8.410;2023-05-13T05:06:30;100352.81;;;10.50;100.00
32789;BME280;19141;48.980;8.410;2023-05-13T05:08:57;100362.44;;;10.59;100.00
32789;BME280;19141;48.980;8.410;2023-05-13T05:11:23;100359.41;;;10.63;100.00
32789;BME280;19141;48.980;8.410;2023-05-13T05:13:50;100359.38;;;10.79;100.00
32789;BME280;19141;48.980;8.410;2023-05-13T05:16:16;100358.34;;;10.88;100.00
32789;BME280;19141;48.980;8.410;2023-05-13T05:18:41;100367.28;;;11.03;100.00
32789;BME280;19141;48.980;8.410;2023-05-13T05:21:08;100369.72;;;11.13;100.00
32789;BME280;19141;48.980;8.410;2023-05-13T05:23:34;100370.38;;;11.23;100.00
32789;BME280;19141;48.980;8.410;2023-05-13T05:26:00;100373.50;;;11.27;100.00
32789;BME280;19141;48.980;8.410;2023-05-13T05:28:25;100371.63;;;11.35;100.00
32789;BME280;19141;48.980;8.410;2023-05-13T05:30:51;100371.78;;;11.34;100.00
32789;BME280;19141;48.980;8.410;2023-05-13T05:33:24;100378.94;;;11.41;100.00
32789;BME280;19141;48.980;8.410;2023-05-13T05:35:49;100381.88;;;11.47;100.00
32789;BME280;19141;48.980;8.410;2023-05-13T05:38:17;100381.19;;;11.53;100.00
32789;BME280;19141;48.980;8.410;2023-05-13T05:40:44;100385.16;;;11.57;100.00
32789;BME280;19141;48.980;8.410;2023-05-13T05:43:10;100375.97;;;11.59;100.00
32789;BME280;19141;48.980;8.410;2023-05-13T05:45:37;100379.78;;;11.65;99.53
32789;BME280;19141;48.980;8.410;2023-05-13T05:48:04;100385.72;;;11.75;100.00
32789;BME280;19141;48.980;8.410;2023-05-13T05:50:31;100383.94;;;11.67;97.22
32789;BME280;19141;48.980;8.410;2023-05-13T05:52:58;100383.06;;;11.75;98.45
32789;BME280;19141;48.980;8.410;2023-05-13T05:55:24;100382.22;;;11.75;99.03
32789;BME280;19141;48.980;8.410;2023-05-13T05:57:50;100382.75;;;11.70;97.57
32789;BME280;19141;48.980;8.410;2023-05-13T06:00:16;100384.69;;;11.84;95.72
32789;BME280;19141;48.980;8.410;2023-05-13T06:02:42;100390.84;;;11.85;95.64
32789;BME280;19141;48.980;8.410;2023-05-13T06:05:10;100387.78;;;11.96;95.42
32789;BME280;19141;48.980;8.410;2023-05-13T06:07:37;100395.59;;;11.98;92.75
32789;BME280;19141;48.980;8.410;2023-05-13T06:10:03;100393.56;;;12.00;93.30
32789;BME280;19141;48.980;8.410;2023-05-13T06:12:29;100382.72;;;12.01;92.42
32789;BME280;19141;48.980;8.410;2023-05-13T06:14:54;100383.56;;;12.02;93.16
32789;BME280;19141;48.980;8.410;2023-05-13T06:17:20;100387.28;;;12.15;92.67
32789;BME280;19141;48.980;8.410;2023-05-13T06:19:45;100389.53;;;12.27;93.19
32789;BME280;19141;48.980;8.410;2023-05-13T06:22:11;100386.91;;;12.18;90.97
32789;BME280;19141;48.980;8.410;2023-05-13T06:24:37;100390.16;;;12.29;88.63
32789;BME280;19141;48.980;8.410;2023-05-13T06:27:09;100389.22;;;12.21;89.78
32789;BME280;19141;48.980;8.410;2023-05-13T06:29:34;100390.66;;;12.09;90.80
32789;BME280;19141;48.980;8.410;2023-05-13T06:32:00;100388.00;;;12.09;91.40
32789;BME280;19141;48.980;8.410;2023-05-13T06:34:26;100395.00;;;12.10;91.26
32789;BME280;19141;48.980;8.410;2023-05-13T06:36:51;100397.97;;;12.15;90.60
32789;BME280;19141;48.980;8.410;2023-05-13T06:39:17;100396.59;;;12.19;90.83
32789;BME280;19141;48.980;8.410;2023-05-13T06:41:43;100400.78;;;12.37;90.38
32789;BME280;19141;48.980;8.410;2023-05-13T06:44:12;100392.47;;;12.32;89.13
32789;BME280;19141;48.980;8.410;2023-05-13T06:46:39;100410.72;;;12.43;91.20
32789;BME280;19141;48.980;8.410;2023-05-13T06:49:04;100399.44;;;12.56;90.09
32789;BME280;19141;48.980;8.410;2023-05-13T06:51:31;100399.06;;;12.59;89.04
32789;BME280;19141;48.980;8.410;2023-05-13T06:53:57;100406.81;;;12.68;86.65
32789;BME280;19141;48.980;8.410;2023-05-13T06:56:22;100407.09;;;12.73;86.61
32789;BME280;19141;48.980;8.410;2023-05-13T06:58:48;100401.84;;;12.80;85.52
32789;BME280;19141;48.980;8.410;2023-05-13T07:01:15;100404.44;;;12.88;86.09
32789;BME280;19141;48.980;8.410;2023-05-13T07:03:41;100403.69;;;12.80;85.42
32789;BME280;19141;48.980;8.410;2023-05-13T07:06:07;100397.34;;;12.81;85.30
32789;BME280;19141;48.980;8.410;2023-05-13T07:08:32;100396.59;;;12.87;86.11
32789;BME280;19141;48.980;8.410;2023-05-13T07:10:57;100407.75;;;12.75;85.88
32789;BME280;19141;48.980;8.410;2023-05-13T07:13:23;100405.69;;;12.77;86.51
32789;BME280;19141;48.980;8.410;2023-05-13T07:15:48;100399.66;;;12.98;85.40
32789;BME280;19141;48.980;8.410;2023-05-13T07:18:14;100409.03;;;13.09;83.80
32789;BME280;19141;48.980;8.410;2023-05-13T07:20:40;100397.31;;;13.10;83.97
32789;BME280;19141;48.980;8.410;2023-05-13T07:23:05;100403.59;;;13.02;84.06
32789;BME280;19141;48.980;8.410;2023-05-13T07:25:31;100402.31;;;13.13;84.85
32789;BME280;19141;48.980;8.410;2023-05-13T07:27:56;100406.34;;;13.09;83.65
32789;BME280;19141;48.980;8.410;2023-05-13T07:30:22;100405.81;;;13.28;82.67
32789;BME280;19141;48.980;8.410;2023-05-13T07:32:47;100403.59;;;13.32;82.20
32789;BME280;19141;48.980;8.410;2023-05-13T07:35:13;100405.72;;;13.37;83.10
32789;BME280;19141;48.980;8.410;2023-05-13T07:37:39;100400.34;;;13.51;83.95
32789;BME280;19141;48.980;8.410;2023-05-13T07:40:05;100403.44;;;13.70;83.40
32789;BME280;19141;48.980;8.410;2023-05-13T07:42:31;100401.03;;;13.60;82.92
32789;BME280;19141;48.980;8.410;2023-05-13T07:44:57;100408.16;;;13.53;82.49
32789;BME280;19141;48.980;8.410;2023-05-13T07:47:22;100405.00;;;13.64;82.83
32789;BME280;19141;48.980;8.410;2023-05-13T07:49:48;100405.91;;;13.71;82.93
32789;BME280;19141;48.980;8.410;2023-05-13T07:52:13;100407.44;;;13.80;81.07
32789;BME280;19141;48.980;8.410;2023-05-13T07:54:39;100402.72;;;13.82;81.47
32789;BME280;19141;48.980;8.410;2023-05-13T07:57:04;100406.09;;;13.91;82.09
32789;BME280;19141;48.980;8.410;2023-05-13T07:59:30;100407.81;;;13.99;83.31
32789;BME280;19141;48.980;8.410;2023-05-13T08:01:56;100407.63;;;14.00;81.49
32789;BME280;19141;48.980;8.410;2023-05-13T08:04:21;100401.19;;;14.16;82.17
32789;BME280;19141;48.980;8.410;2023-05-13T08:06:46;100404.59;;;14.31;81.09
32789;BME280;19141;48.980;8.410;2023-05-13T08:09:12;100408.06;;;14.25;81.85
32789;BME280;19141;48.980;8.410;2023-05-13T08:11:38;100411.25;;;14.35;80.33
32789;BME280;19141;48.980;8.410;2023-05-13T08:14:04;100404.41;;;14.33;84.62
32789;BME280;19141;48.980;8.410;2023-05-13T08:16:29;100414.81;;;14.43;82.69
32789;BME280;19141;48.980;8.410;2023-05-13T08:18:55;100407.34;;;14.38;79.46
32789;BME280;19141;48.980;8.410;2023-05-13T08:21:21;100413.66;;;14.52;77.69
32789;BME280;19141;48.980;8.410;2023-05-13T08:23:49;100411.19;;;14.50;79.57
32789;BME280;19141;48.980;8.410;2023-05-13T08:26:15;100413.66;;;14.52;79.35
32789;BME280;19141;48.980;8.410;2023-05-13T08:28:41;100415.53;;;14.51;77.45
32789;BME280;19141;48.980;8.410;2023-05-13T08:31:06;100407.09;;;14.54;78.09
32789;BME280;19141;48.980;8.410;2023-05-13T08:33:32;100399.28;;;14.59;77.15
32789;BME280;19141;48.980;8.410;2023-05-13T08:35:58;100409.97;;;14.31;79.15
32789;BME280;19141;48.980;8.410;2023-05-13T08:38:24;100408.41;;;14.65;76.88
32789;BME280;19141;48.980;8.410;2023-05-13T08:40:49;100403.84;;;14.65;76.39
32789;BME280;19141;48.980;8.410;2023-05-13T08:43:15;100411.81;;;14.80;73.64
32789;BME280;19141;48.980;8.410;2023-05-13T08:45:44;100406.16;;;14.69;75.25
32789;BME280;19141;48.980;8.410;2023-05-13T08:48:14;100411.84;;;14.87;75.80
32789;BME280;19141;48.980;8.410;2023-05-13T08:50:40;100400.38;;;15.00;73.92
32789;BME280;19141;48.980;8.410;2023-05-13T08:53:06;100411.56;;;15.10;74.62
32789;BME280;19141;48.980;8.410;2023-05-13T08:55:32;100410.19;;;15.20;74.27
32789;BME280;19141;48.980;8.410;2023-05-13T08:57:58;100416.25;;;15.42;75.00
32789;BME280;19141;48.980;8.410;2023-05-13T09:00:23;100412.25;;;15.66;73.52
32789;BME280;19141;48.980;8.410;2023-05-13T09:02:49;100412.53;;;15.43;70.86
32789;BME280;19141;48.980;8.410;2023-05-13T09:05:16;100412.16;;;15.53;70.68
32789;BME280;19141;48.980;8.410;2023-05-13T09:07:42;100416.28;;;15.49;72.33
32789;BME280;19141;48.980;8.410;2023-05-13T09:10:08;100415.97;;;15.65;71.32
32789;BME280;19141;48.980;8.410;2023-05-13T09:12:47;100414.97;;;15.86;71.01
32789;BME280;19141;48.980;8.410;2023-05-13T09:15:21;100419.13;;;16.09;69.29
32789;BME280;19141;48.980;8.410;2023-05-13T09:17:49;100419.97;;;16.22;69.24
32789;BME280;19141;48.980;8.410;2023-05-13T09:20:16;100413.34;;;16.05;69.00
32789;BME280;19141;48.980;8.410;2023-05-13T09:22:50;100415.22;;;16.31;69.25
32789;BME280;19141;48.980;8.410;2023-05-13T09:25:18;100413.16;;;16.33;67.61
32789;BME280;19141;48.980;8.410;2023-05-13T09:27:50;100413.56;;;16.50;68.25
32789;BME280;19141;48.980;8.410;2023-05-13T09:30:15;100420.59;;;16.31;67.62
32789;BME280;19141;48.980;8.410;2023-05-13T09:32:41;100420.41;;;16.39;66.92
32789;BME280;19141;48.980;8.410;2023-05-13T09:35:12;100420.41;;;16.39;73.98
32789;BME280;19141;48.980;8.410;2023-05-13T09:37:43;100412.53;;;16.58;68.93
32789;BME280;19141;48.980;8.410;2023-05-13T09:40:11;100416.88;;;16.45;67.58
32789;BME280;19141;48.980;8.410;2023-05-13T09:42:40;100412.53;;;16.31;66.30
32789;BME280;19141;48.980;8.410;2023-05-13T09:45:06;100412.94;;;16.48;67.80
32789;BME280;19141;48.980;8.410;2023-05-13T09:47:34;100409.00;;;16.90;65.69
32789;BME280;19141;48.980;8.410;2023-05-13T09:50:01;100404.81;;;16.94;63.77
32789;BME280;19141;48.980;8.410;2023-05-13T09:52:29;100405.88;;;16.93;65.02
32789;BME280;19141;48.980;8.410;2023-05-13T09:54:56;100404.97;;;17.13;61.97
32789;BME280;19141;48.980;8.410;2023-05-13T09:57:22;100405.25;;;16.98;61.14
32789;BME280;19141;48.980;8.410;2023-05-13T09:59:47;100408.72;;;17.12;62.25
32789;BME280;19141;48.980;8.410;2023-05-13T10:02:14;100405.13;;;17.31;60.34
32789;BME280;19141;48.980;8.410;2023-05-13T10:04:39;100398.88;;;17.44;60.78
32789;BME280;19141;48.980;8.410;2023-05-13T10:07:06;100404.47;;;17.42;61.18
32789;BME280;19141;48.980;8.410;2023-05-13T10:09:34;100403.69;;;17.35;60.90
32789;BME280;19141;48.980;8.410;2023-05-13T10:12:01;100406.31;;;17.48;61.06
32789;BME280;19141;48.980;8.410;2023-05-13T10:14:27;100399.63;;;17.57;61.36
32789;BME280;19141;48.980;8.410;2023-05-13T10:16:53;100400.81;;;17.68;61.23
32789;BME280;19141;48.980;8.410;2023-05-13T10:19:19;100405.88;;;17.51;60.67
32789;BME280;19141;48.980;8.410;2023-05-13T10:21:46;100392.06;;;17.41;61.17
32789;BME280;19141;48.980;8.410;2023-05-13T10:24:12;100399.34;;;17.72;59.06
32789;BME280;19141;48.980;8.410;2023-05-13T10:26:38;100395.56;;;17.80;58.08
32789;BME280;19141;48.980;8.410;2023-05-13T10:29:05;100398.94;;;17.75;57.64
32789;BME280;19141;48.980;8.410;2023-05-13T10:31:32;100401.38;;;17.83;58.25
32789;BME280;19141;48.980;8.410;2023-05-13T10:33:58;100391.28;;;17.66;57.38
32789;BME280;19141;48.980;8.410;2023-05-13T10:42:30;100395.41;;;17.75;58.09
32789;BME280;19141;48.980;8.410;2023-05-13T10:44:59;100395.78;;;17.33;61.39
32789;BME280;19141;48.980;8.410;2023-05-13T10:47:25;100395.53;;;17.48;60.02
32789;BME280;19141;48.980;8.410;2023-05-13T10:49:52;100397.78;;;17.51;59.67
32789;BME280;19141;48.980;8.410;2023-05-13T10:52:17;100396.06;;;17.63;60.04
32789;BME280;19141;48.980;8.410;2023-05-13T10:54:57;100399.22;;;17.60;60.16
32789;BME280;19141;48.980;8.410;2023-05-13T10:57:27;100398.84;;;17.50;61.61
32789;BME280;19141;48.980;8.410;2023-05-13T11:00:13;100398.75;;;17.63;60.24
32789;BME280;19141;48.980;8.410;2023-05-13T11:02:43;100397.03;;;17.82;57.98
32789;BME280;19141;48.980;8.410;2023-05-13T11:05:12;100396.97;;;17.89;57.74
32789;BME280;19141;48.980;8.410;2023-05-13T11:07:56;100397.13;;;17.62;59.08
32789;BME280;19141;48.980;8.410;2023-05-13T11:10:26;100402.19;;;17.39;59.56
32789;BME280;19141;48.980;8.410;2023-05-13T11:15:47;100396.84;;;17.32;61.88
32789;BME280;19141;48.980;8.410;2023-05-13T11:18:13;100400.50;;;17.45;61.84
32789;BME280;19141;48.980;8.410;2023-05-13T11:20:39;100391.50;;;17.64;59.40
32789;BME280;19141;48.980;8.410;2023-05-13T11:23:05;100402.38;;;17.44;60.05
32789;BME280;19141;48.980;8.410;2023-05-13T11:25:32;100396.75;;;17.52;60.75
32789;BME280;19141;48.980;8.410;2023-05-13T11:27:58;100395.84;;;17.65;60.89
32789;BME280;19141;48.980;8.410;2023-05-13T11:30:26;100401.00;;;17.67;60.43
32789;BME280;19141;48.980;8.410;2023-05-13T11:32:58;100393.00;;;17.53;59.13
32789;BME280;19141;48.980;8.410;2023-05-13T11:35:27;100400.09;;;17.86;59.21
32789;BME280;19141;48.980;8.410;2023-05-13T11:37:58;100398.44;;;17.85;58.36
32789;BME280;19141;48.980;8.410;2023-05-13T11:40:28;100393.06;;;17.85;58.13
32789;BME280;19141;48.980;8.410;2023-05-13T11:42:54;100391.97;;;17.93;57.75
32789;BME280;19141;48.980;8.410;2023-05-13T11:45:20;100388.13;;;18.13;57.99
32789;BME280;19141;48.980;8.410;2023-05-13T11:47:47;100387.66;;;18.16;56.37
32789;BME280;19141;48.980;8.410;2023-05-13T11:52:51;100393.06;;;18.41;58.01
32789;BME280;19141;48.980;8.410;2023-05-13T11:57:50;100385.63;;;18.37;59.35
32789;BME280;19141;48.980;8.410;2023-05-13T12:00:15;100388.72;;;18.40;58.84
32789;BME280;19141;48.980;8.410;2023-05-13T12:02:41;100383.56;;;18.57;57.53
32789;BME280;19141;48.980;8.410;2023-05-13T12:05:09;100387.06;;;18.83;56.05
32789;BME280;19141;48.980;8.410;2023-05-13T12:07:36;100383.34;;;19.02;55.26
32789;BME280;19141;48.980;8.410;2023-05-13T12:10:03;100389.47;;;19.09;57.20
32789;BME280;19141;48.980;8.410;2023-05-13T12:12:32;100388.13;;;19.37;57.30
32789;BME280;19141;48.980;8.410;2023-05-13T12:15:01;100379.56;;;19.58;53.29
32789;BME280;19141;48.980;8.410;2023-05-13T12:17:27;100387.63;;;19.76;53.06
32789;BME280;19141;48.980;8.410;2023-05-13T12:20:13;100391.91;;;19.96;51.55
32789;BME280;19141;48.980;8.410;2023-05-13T12:25:42;100386.41;;;19.72;54.22
32789;BME280;19141;48.980;8.410;2023-05-13T12:31:01;100388.44;;;20.30;51.48
32789;BME280;19141;48.980;8.410;2023-05-13T12:35:59;100381.16;;;21.70;49.77
32789;BME280;19141;48.980;8.410;2023-05-13T12:38:39;100382.66;;;21.78;48.80
32789;BME280;19141;48.980;8.410;2023-05-13T12:41:11;100372.38;;;21.34;48.99
32789;BME280;19141;48.980;8.410;2023-05-13T12:43:39;100376.00;;;20.76;50.18
32789;BME280;19141;48.980;8.410;2023-05-13T12:46:05;100372.84;;;20.68;49.46
32789;BME280;19141;48.980;8.410;2023-05-13T12:48:31;100375.38;;;20.86;51.14
32789;BME280;19141;48.980;8.410;2023-05-13T12:50:57;100381.22;;;21.30;48.67
32789;BME280;19141;48.980;8.410;2023-05-13T12:53:22;100365.16;;;21.40;48.52
32789;BME280;19141;48.980;8.410;2023-05-13T12:55:48;100378.03;;;21.33;49.58
32789;BME280;19141;48.980;8.410;2023-05-13T12:58:14;100378.53;;;20.24;50.80
32789;BME280;19141;48.980;8.410;2023-05-13T13:00:39;100377.88;;;20.88;50.13
32789;BME280;19141;48.980;8.410;2023-05-13T13:03:05;100369.16;;;20.85;50.52
32789;BME280;19141;48.980;8.410;2023-05-13T13:05:31;100371.19;;;21.19;49.77
32789;BME280;19141;48.980;8.410;2023-05-13T13:07:57;100375.28;;;20.69;51.30
32789;BME280;19141;48.980;8.410;2023-05-13T13:10:22;100368.69;;;20.77;51.14
32789;BME280;19141;48.980;8.410;2023-05-13T13:12:48;100368.69;;;20.53;51.14
32789;BME280;19141;48.980;8.410;2023-05-13T13:15:14;100372.72;;;20.63;50.49
32789;BME280;19141;48.980;8.410;2023-05-13T13:17:39;100376.25;;;20.63;51.47
32789;BME280;19141;48.980;8.410;2023-05-13T13:20:05;100373.16;;;20.59;51.10
32789;BME280;19141;48.980;8.410;2023-05-13T13:22:31;100364.94;;;20.66;51.16
32789;BME280;19141;48.980;8.410;2023-05-13T13:24:58;100372.91;;;20.84;50.88
32789;BME280;19141;48.980;8.410;2023-05-13T13:27:23;100369.75;;;20.52;50.65
32789;BME280;19141;48.980;8.410;2023-05-13T13:29:49;100371.63;;;20.28;51.67
32789;BME280;19141;48.980;8.410;2023-05-13T13:32:14;100353.50;;;20.17;51.73
32789;BME280;19141;48.980;8.410;2023-05-13T13:34:39;100376.13;;;19.93;52.18
32789;BME280;19141;48.980;8.410;2023-05-13T13:37:05;100357.13;;;19.39;53.64
32789;BME280;19141;48.980;8.410;2023-05-13T13:39:30;100355.59;;;19.62;53.33
32789;BME280;19141;48.980;8.410;2023-05-13T13:41:56;100354.00;;;19.72;52.17
32789;BME280;19141;48.980;8.410;2023-05-13T13:44:21;100359.38;;;19.72;51.17
32789;BME280;19141;48.980;8.410;2023-05-13T13:46:47;100347.75;;;19.72;51.07
32789;BME280;19141;48.980;8.410;2023-05-13T13:49:12;100350.75;;;19.34;52.70
32789;BME280;19141;48.980;8.410;2023-05-13T13:51:38;100347.75;;;19.72;53.08
32789;BME280;19141;48.980;8.410;2023-05-13T13:54:06;100352.59;;;19.70;52.15
32789;BME280;19141;48.980;8.410;2023-05-13T13:56:37;100348.69;;;19.66;52.25
32789;BME280;19141;48.980;8.410;2023-05-13T13:59:03;100347.47;;;19.62;52.70
32789;BME280;19141;48.980;8.410;2023-05-13T14:01:29;100339.69;;;19.53;51.57
32789;BME280;19141;48.980;8.410;2023-05-13T14:04:09;100330.25;;;19.63;50.80
32789;BME280;19141;48.980;8.410;2023-05-13T14:06:35;100337.50;;;19.62;50.48
32789;BME280;19141;48.980;8.410;2023-05-13T14:09:01;100337.69;;;19.79;52.22
32789;BME280;19141;48.980;8.410;2023-05-13T14:11:26;100329.91;;;19.71;52.57
32789;BME280;19141;48.980;8.410;2023-05-13T14:13:51;100337.69;;;19.79;50.71
32789;BME280;19141;48.980;8.410;2023-05-13T14:16:17;100338.47;;;19.68;51.61
32789;BME280;19141;48.980;8.410;2023-05-13T14:18:42;100336.03;;;19.78;51.72
32789;BME280;19141;48.980;8.410;2023-05-13T14:21:08;100324.97;;;19.49;51.37
32789;BME280;19141;48.980;8.410;2023-05-13T14:23:33;100329.72;;;19.24;50.90
32789;BME280;19141;48.980;8.410;2023-05-13T14:25:59;100310.25;;;19.34;51.38
32789;BME280;19141;48.980;8.410;2023-05-13T14:28:24;100332.00;;;19.39;51.75
32789;BME280;19141;48.980;8.410;2023-05-13T14:30:50;100314.31;;;19.55;51.91
32789;BME280;19141;48.980;8.410;2023-05-13T14:33:15;100309.00;;;19.48;53.02
32789;BME280;19141;48.980;8.410;2023-05-13T14:35:40;100314.81;;;19.33;52.56
32789;BME280;19141;48.980;8.410;2023-05-13T14:38:06;100307.31;;;19.05;52.70
32789;BME280;19141;48.980;8.410;2023-05-13T14:40:33;100296.16;;;18.83;53.20
32789;BME280;19141;48.980;8.410;2023-05-13T14:42:58;100293.25;;;18.85;53.35
32789;BME280;19141;48.980;8.410;2023-05-13T14:45:23;100289.84;;;18.71;54.31
32789;BME280;19141;48.980;8.410;2023-05-13T14:47:49;100292.63;;;19.01;54.49
32789;BME280;19141;48.980;8.410;2023-05-13T14:50:18;100293.50;;;19.13;55.68
32789;BME280;19141;48.980;8.410;2023-05-13T14:52:44;100291.09;;;19.23;55.55
32789;BME280;19141;48.980;8.410;2023-05-13T14:55:09;100294.59;;;19.24;54.88
32789;BME280;19141;48.980;8.410;2023-05-13T14:57:35;100289.66;;;19.21;53.26
32789;BME280;19141;48.980;8.410;2023-05-13T15:00:01;100272.63;;;19.20;52.66
32789;BME280;19141;48.980;8.410;2023-05-13T15:02:27;100282.50;;;19.27;53.42
32789;BME280;19141;48.980;8.410;2023-05-13T15:04:53;100290.47;;;19.21;54.00
32789;BME280;19141;48.980;8.410;2023-05-13T15:07:18;100278.34;;;19.12;53.88
32789;BME280;19141;48.980;8.410;2023-05-13T15:09:44;100277.28;;;19.13;53.44
32789;BME280;19141;48.980;8.410;2023-05-13T15:12:09;100269.00;;;18.96;54.36
32789;BME280;19141;48.980;8.410;2023-05-13T15:14:35;100264.16;;;18.68;54.79
32789;BME280;19141;48.980;8.410;2023-05-13T15:17:00;100270.88;;;18.59;55.78
32789;BME280;19141;48.980;8.410;2023-05-13T15:19:25;100273.44;;;18.54;56.48
32789;BME280;19141;48.980;8.410;2023-05-13T15:21:51;100271.31;;;18.56;55.28
32789;BME280;19141;48.980;8.410;2023-05-13T15:24:16;100272.69;;;18.65;53.45
32789;BME280;19141;48.980;8.410;2023-05-13T15:26:42;100272.38;;;18.55;54.71
32789;BME280;19141;48.980;8.410;2023-05-13T15:29:07;100276.28;;;18.59;54.46
32789;BME280;19141;48.980;8.410;2023-05-13T15:31:34;100272.25;;;18.68;54.48
32789;BME280;19141;48.980;8.410;2023-05-13T15:33:59;100270.72;;;18.54;54.81
32789;BME280;19141;48.980;8.410;2023-05-13T15:36:26;100273.59;;;18.59;56.05
32789;BME280;19141;48.980;8.410;2023-05-13T15:38:51;100260.03;;;18.48;55.72
32789;BME280;19141;48.980;8.410;2023-05-13T15:41:17;100271.78;;;18.53;55.91
32789;BME280;19141;48.980;8.410;2023-05-13T15:43:42;100268.97;;;18.66;55.46
32789;BME280;19141;48.980;8.410;2023-05-13T15:46:08;100274.78;;;18.63;56.37
32789;BME280;19141;48.980;8.410;2023-05-13T15:48:33;100272.00;;;18.33;56.83
32789;BME280;19141;48.980;8.410;2023-05-13T15:50:58;100265.72;;;18.39;56.33
32789;BME280;19141;48.980;8.410;2023-05-13T15:53:24;100271.31;;;18.38;54.39
32789;BME280;19141;48.980;8.410;2023-05-13T15:55:50;100266.28;;;18.23;55.64
32789;BME280;19141;48.980;8.410;2023-05-13T15:58:15;100272.81;;;18.34;56.09
32789;BME280;19141;48.980;8.410;2023-05-13T16:00:40;100271.75;;;18.16;55.53
32789;BME280;19141;48.980;8.410;2023-05-13T16:03:06;100264.41;;;18.24;56.52
32789;BME280;19141;48.980;8.410;2023-05-13T16:05:31;100254.53;;;18.17;56.69
32789;BME280;19141;48.980;8.410;2023-05-13T16:07:57;100260.41;;;18.33;57.94
32789;BME280;19141;48.980;8.410;2023-05-13T16:10:22;100252.91;;;18.35;56.31
32789;BME280;19141;48.980;8.410;2023-05-13T16:12:48;100256.94;;;18.44;56.50
32789;BME280;19141;48.980;8.410;2023-05-13T16:15:13;100251.84;;;18.54;57.33
32789;BME280;19141;48.980;8.410;2023-05-13T16:17:39;100254.69;;;18.41;56.50
32789;BME280;19141;48.980;8.410;2023-05-13T16:20:05;100255.00;;;18.33;56.44
32789;BME280;19141;48.980;8.410;2023-05-13T16:22:32;100262.19;;;18.39;55.96
32789;BME280;19141;48.980;8.410;2023-05-13T16:25:05;100261.56;;;18.37;56.66
32789;BME280;19141;48.980;8.410;2023-05-13T16:27:32;100261.56;;;18.18;56.96
32789;BME280;19141;48.980;8.410;2023-05-13T16:29:58;100257.97;;;18.25;58.31
32789;BME280;19141;48.980;8.410;2023-05-13T16:32:24;100265.94;;;18.20;58.92
32789;BME280;19141;48.980;8.410;2023-05-13T16:34:50;100259.84;;;18.24;58.30
32789;BME280;19141;48.980;8.410;2023-05-13T16:37:16;100269.22;;;18.22;57.28
32789;BME280;19141;48.980;8.410;2023-05-13T16:39:42;100272.19;;;18.13;58.16
32789;BME280;19141;48.980;8.410;2023-05-13T16:42:08;100267.25;;;18.10;58.12
32789;BME280;19141;48.980;8.410;2023-05-13T16:44:34;100259.94;;;17.93;59.98
32789;BME280;19141;48.980;8.410;2023-05-13T16:46:59;100272.44;;;17.87;61.01
32789;BME280;19141;48.980;8.410;2023-05-13T16:49:25;100271.22;;;17.83;60.39
32789;BME280;19141;48.980;8.410;2023-05-13T16:51:50;100277.16;;;17.92;60.23
32789;BME280;19141;48.980;8.410;2023-05-13T16:54:15;100270.94;;;17.91;60.91
32789;BME280;19141;48.980;8.410;2023-05-13T16:56:41;100275.13;;;17.87;59.11
32789;BME280;19141;48.980;8.410;2023-05-13T16:59:07;100268.34;;;17.78;60.23
32789;BME280;19141;48.980;8.410;2023-05-13T17:01:35;100270.44;;;17.76;60.50
32789;BME280;19141;48.980;8.410;2023-05-13T17:04:00;100269.19;;;17.78;59.28
32789;BME280;19141;48.980;8.410;2023-05-13T17:06:26;100273.56;;;17.73;59.23
32789;BME280;19141;48.980;8.410;2023-05-13T17:08:51;100275.63;;;17.71;60.60
32789;BME280;19141;48.980;8.410;2023-05-13T17:11:17;100270.69;;;17.68;60.48
32789;BME280;19141;48.980;8.410;2023-05-13T17:13:43;100265.41;;;17.54;61.03
32789;BME280;19141;48.980;8.410;2023-05-13T17:16:09;100264.38;;;17.55;62.10
32789;BME280;19141;48.980;8.410;2023-05-13T17:18:35;100263.69;;;17.35;61.87
32789;BME280;19141;48.980;8.410;2023-05-13T17:21:00;100266.94;;;17.44;62.90
32789;BME280;19141;48.980;8.410;2023-05-13T17:23:30;100265.47;;;17.48;61.97
32789;BME280;19141;48.980;8.410;2023-05-13T17:25:55;100265.47;;;17.48;63.09
32789;BME280;19141;48.980;8.410;2023-05-13T17:28:20;100270.41;;;17.51;63.41
32789;BME280;19141;48.980;8.410;2023-05-13T17:30:46;100268.97;;;17.48;63.92